Flight Track Log - Related Links

Times and Time Zones

All times are in EDT time to prevent confusion due to time zone crossing. See the SWA225 flight status page for this flight to view local times or setup timezone preferences in your user account.

Time Position Orientation Groundspeed Altitude Reporting Facility
EDT Latitude Longitude Course Direction KTS MPH feet Rate Location/Type
Thu 10:12:03 AM 33.6433 -117.8881 320° Northwest 152 175 1,800  Level Los Angeles Center
Thu 10:13:05 AM 33.6022 -117.8953 188° South 150 173 3,300 1,548 Climbing Los Angeles Center
Thu 10:14:07 AM 33.5419 -117.9153 195° South 220 253 5,000 2,829 Climbing Los Angeles Center
Thu 10:15:08 AM 33.4769 -117.9683 214° Southwest 273 314 9,100 3,171 Climbing Los Angeles Center
Thu 10:16:10 AM 33.4083 -118.0264 215° Southwest 291 335 11,500 3,000 Climbing Los Angeles Center
Thu 10:17:00 AM 34.1377 -118.3357 320° Northwest  Level Estimated
Thu 10:17:12 AM 33.3617 -118.1164 238° Southwest 334 384 15,300  Level Los Angeles Center
Thu 10:18:14 AM 33.3992 -118.2428 290° West 364 419 18,800 3,194 Climbing Los Angeles Center
Thu 10:19:16 AM 33.4981 -118.2789 343° North 371 427 21,900 2,829 Climbing Los Angeles Center
Thu 10:20:17 AM 33.6006 -118.3156 343° North 381 438 24,600 2,439 Climbing Los Angeles Center
Thu 10:21:19 AM 33.7106 -118.3547 344° North 393 452 26,900 2,129 Climbing Los Angeles Center
Thu 10:22:21 AM 33.8281 -118.3956 344° North 411 473 29,000 1,935 Climbing Los Angeles Center
Thu 10:23:23 AM 33.9403 -118.4353 344° North 418 481 30,900 1,984 Climbing Los Angeles Center
Thu 10:24:25 AM 34.0489 -118.4892 338° Northwest 421 484 33,100 1,887 Climbing Los Angeles Center
Thu 10:25:27 AM 34.1572 -118.5422 338° Northwest 420 483 34,800 1,452 Climbing Los Angeles Center
Thu 10:26:29 AM 34.2669 -118.5964 338° Northwest 424 488 36,100 1,548 Climbing Los Angeles Center
Thu 10:27:31 AM 34.3964 -118.6597 338° Northwest 417 480 38,000 927 Climbing Los Angeles Center
Thu 10:28:32 AM 34.5014 -118.7125 338° Northwest 412 474 38,000  Level Los Angeles Center
Thu 10:29:34 AM 34.6069 -118.7642 338° Northwest 408 470 38,000  Level Los Angeles Center
Thu 10:30:36 AM 34.7128 -118.8169 338° Northwest 412 474 38,000  Level Los Angeles Center
Thu 10:31:38 AM 34.8153 -118.8747 335° Northwest 411 473 38,000  Level Los Angeles Center
Thu 10:32:40 AM 34.9164 -118.9725 322° Northwest 407 468 38,000  Level Los Angeles Center
Thu 10:33:41 AM 35.0075 -119.0583 322° Northwest 411 473 38,000  Level Los Angeles Center
Thu 10:34:43 AM 35.0978 -119.1478 321° Northwest 417 480 38,000  Level Los Angeles Center
Thu 10:35:45 AM 35.1881 -119.2372 321° Northwest 420 483 38,000 48 Level Los Angeles Center
Thu 10:36:47 AM 35.2803 -119.3272 321° Northwest 423 487 38,100  Climbing Los Angeles Center
Thu 10:37:49 AM 35.3725 -119.4178 321° Northwest 425 489 38,000 -70 Descending Los Angeles Center
Thu 10:38:13 AM 35.4083 -119.4528 321° Northwest 425 489 38,000  Level Oakland Center
Thu 10:39:14 AM 35.5181 -119.5625 321° Northwest 426 490 38,000  Level Oakland Center
Thu 10:40:16 AM 35.6106 -119.6544 321° Northwest 428 493 38,000  Level Oakland Center
Thu 10:41:17 AM 35.7025 -119.7464 321° Northwest 430 495 38,000  Level Oakland Center
Thu 10:42:18 AM 35.7944 -119.8383 321° Northwest 428 493 38,000  Level Oakland Center
Thu 10:43:19 AM 35.8864 -119.9319 320° Northwest 432 497 38,000  Level Oakland Center
Thu 10:44:20 AM 35.9794 -120.0239 321° Northwest 432 497 38,000  Level Oakland Center
Thu 10:45:22 AM 36.0697 -120.1144 321° Northwest 423 487 38,000  Level Oakland Center
Thu 10:46:23 AM 36.1592 -120.2064 320° Northwest 422 486 38,000  Level Oakland Center
Thu 10:47:24 AM 36.2675 -120.3175 320° Northwest 423 487 38,000  Level Oakland Center
Thu 10:48:25 AM 36.3581 -120.4106 320° Northwest 425 489 38,000 -1,082 Level Oakland Center
Thu 10:49:26 AM 36.4475 -120.5033 320° Northwest 421 484 35,800 -2,537 Descending Oakland Center
Thu 10:50:28 AM 36.5356 -120.5925 321° Northwest 411 473 32,800 -2,976 Descending Oakland Center
Thu 10:51:29 AM 36.6228 -120.6844 320° Northwest 411 473 29,700 -2,361 Descending Oakland Center
Thu 10:52:30 AM 36.7122 -120.7775 320° Northwest 420 483 28,000 -934 Descending Oakland Center
Thu 10:53:31 AM 36.7967 -120.8681 319° Northwest 403 464 27,800 -2,115 Descending Oakland Center
Thu 10:54:32 AM 36.8886 -120.9756 317° Northwest 415 478 23,700 -3,220 Descending Oakland Center
Thu 10:55:34 AM 36.9742 -121.0742 317° Northwest 413 475 21,200 -1,805 Descending Oakland Center
Thu 10:56:35 AM 37.0508 -121.1631 317° Northwest 401 461 20,000 -1,328 Descending Oakland Center
Thu 10:57:36 AM 37.1347 -121.2586 318° Northwest 382 440 18,500 -2,607 Descending Oakland Center
Thu 10:58:37 AM 37.2147 -121.3508 317° Northwest 388 447 14,700 -3,541 Descending Oakland Center
Thu 10:59:38 AM 37.2967 -121.4475 317° Northwest 401 461 11,300 -2,400 Descending Oakland Center
Thu 11:00:37 AM 37.3833 -121.5333 322° Northwest 343 395 9,900 -1,210 Descending Northern Cal TRACON
Thu 11:01:37 AM 37.4333 -121.6167 307° West 303 349 8,900 -1,250 Descending Northern Cal TRACON
Thu 11:02:37 AM 37.5000 -121.6833 322° Northwest 280 322 7,400 -1,368 Descending Northern Cal TRACON
Thu 11:03:31 AM 37.5333 -121.7500 302° West 271 312 6,300 -737 Descending Northern Cal TRACON
Thu 11:04:31 AM 37.5333 -121.8333 270° West 246 283 6,000 -650 Descending Northern Cal TRACON
Thu 11:05:31 AM 37.5500 -121.9167 284° West 228 262 5,000 -737 Descending Northern Cal TRACON
Thu 11:06:25 AM 37.5500 -121.9833 270° West 219 252 4,600 -737 Descending Northern Cal TRACON
Thu 11:07:25 AM 37.5833 -122.0333 310° West 201 231 3,600 -1,000 Descending Northern Cal TRACON
Thu 11:08:25 AM 37.6167 -122.0833 310° West 166 191 2,600 -1,000 Descending Northern Cal TRACON
Thu 11:08:49 AM 37.6267 -122.1019 304° West 185 213 2,200 -837 Descending Oakland Center
Thu 11:09:51 AM 37.6550 -122.1447 310° West 169 194 1,400 -780 Descending Oakland Center
Thu 11:10:52 AM 37.6806 -122.1825 311° West 156 180 600 9,148 Descending Oakland Center
Thu 11:11:53 AM 37.7033 -122.2167 310° West 140 161 20,000 19,082 Climbing Oakland Center
Thu 11:13:00 AM 37.7167 -122.2167 270° West  Level FlightAware Approximate
Thu 11:20:00 AM 37.7213 -122.2207 270° West  Level Estimated

Login

Don't have an account? Register now (free) for customized features, flight alerts, and more!